sensor_id;sensor_type;location;lat;lon;timestamp;P1;durP1;ratioP1;P2;durP2;ratioP2
41293;SDS011;27037;52.010;4.446;2022-08-04T00:00:13;8.88;;;3.45;;
41293;SDS011;27037;52.010;4.446;2022-08-04T00:08:49;8.38;;;3.85;;
41293;SDS011;27037;52.010;4.446;2022-08-04T00:11:20;7.90;;;3.58;;
41293;SDS011;27037;52.010;4.446;2022-08-04T00:13:56;7.90;;;3.53;;
41293;SDS011;27037;52.010;4.446;2022-08-04T00:16:27;7.13;;;3.42;;
41293;SDS011;27037;52.010;4.446;2022-08-04T00:18:57;7.47;;;3.55;;
41293;SDS011;27037;52.010;4.446;2022-08-04T00:21:29;9.55;;;4.22;;
41293;SDS011;27037;52.010;4.446;2022-08-04T00:23:58;6.82;;;3.55;;
41293;SDS011;27037;52.010;4.446;2022-08-04T00:26:26;6.32;;;3.60;;
41293;SDS011;27037;52.010;4.446;2022-08-04T00:28:51;9.85;;;3.90;;
41293;SDS011;27037;52.010;4.446;2022-08-04T00:31:17;10.65;;;3.45;;
41293;SDS011;27037;52.010;4.446;2022-08-04T00:33:44;10.13;;;3.67;;
41293;SDS011;27037;52.010;4.446;2022-08-04T00:36:11;8.75;;;3.60;;
41293;SDS011;27037;52.010;4.446;2022-08-04T00:38:41;8.77;;;3.35;;
41293;SDS011;27037;52.010;4.446;2022-08-04T00:43:49;7.28;;;3.92;;
41293;SDS011;27037;52.010;4.446;2022-08-04T00:46:45;6.90;;;3.95;;
41293;SDS011;27037;52.010;4.446;2022-08-04T01:00:11;7.38;;;3.60;;
41293;SDS011;27037;52.010;4.446;2022-08-04T01:05:45;6.82;;;3.83;;
41293;SDS011;27037;52.010;4.446;2022-08-04T01:16:24;9.55;;;3.30;;
41293;SDS011;27037;52.010;4.446;2022-08-04T01:19:01;12.95;;;4.15;;
41293;SDS011;27037;52.010;4.446;2022-08-04T01:24:50;7.97;;;4.00;;
41293;SDS011;27037;52.010;4.446;2022-08-04T01:30:31;10.20;;;4.25;;
41293;SDS011;27037;52.010;4.446;2022-08-04T01:33:07;8.10;;;3.78;;
41293;SDS011;27037;52.010;4.446;2022-08-04T01:41:05;7.82;;;4.10;;
41293;SDS011;27037;52.010;4.446;2022-08-04T01:43:33;9.50;;;4.18;;
41293;SDS011;27037;52.010;4.446;2022-08-04T01:46:01;9.32;;;4.13;;
41293;SDS011;27037;52.010;4.446;2022-08-04T01:48:28;7.78;;;4.25;;
41293;SDS011;27037;52.010;4.446;2022-08-04T01:50:59;7.35;;;3.90;;
41293;SDS011;27037;52.010;4.446;2022-08-04T01:53:29;9.38;;;3.67;;
41293;SDS011;27037;52.010;4.446;2022-08-04T01:55:56;6.38;;;3.85;;
41293;SDS011;27037;52.010;4.446;2022-08-04T01:58:23;11.50;;;4.10;;
41293;SDS011;27037;52.010;4.446;2022-08-04T02:03:30;7.45;;;3.80;;
41293;SDS011;27037;52.010;4.446;2022-08-04T02:06:10;12.10;;;4.15;;
41293;SDS011;27037;52.010;4.446;2022-08-04T02:11:57;9.80;;;4.10;;
41293;SDS011;27037;52.010;4.446;2022-08-04T02:14:36;9.88;;;3.95;;
41293;SDS011;27037;52.010;4.446;2022-08-04T02:19:41;9.07;;;3.90;;
41293;SDS011;27037;52.010;4.446;2022-08-04T02:22:19;9.68;;;3.72;;
41293;SDS011;27037;52.010;4.446;2022-08-04T02:24:49;7.95;;;3.83;;
41293;SDS011;27037;52.010;4.446;2022-08-04T02:27:31;7.57;;;3.67;;
41293;SDS011;27037;52.010;4.446;2022-08-04T02:30:19;9.45;;;4.07;;
41293;SDS011;27037;52.010;4.446;2022-08-04T02:32:48;9.32;;;3.58;;
41293;SDS011;27037;52.010;4.446;2022-08-04T02:35:24;8.70;;;3.40;;
41293;SDS011;27037;52.010;4.446;2022-08-04T02:38:00;9.30;;;3.75;;
41293;SDS011;27037;52.010;4.446;2022-08-04T02:40:35;10.05;;;3.85;;
41293;SDS011;27037;52.010;4.446;2022-08-04T02:43:03;9.52;;;3.55;;
41293;SDS011;27037;52.010;4.446;2022-08-04T02:45:33;8.55;;;3.60;;
41293;SDS011;27037;52.010;4.446;2022-08-04T02:48:02;7.57;;;3.53;;
41293;SDS011;27037;52.010;4.446;2022-08-04T02:50:28;7.75;;;3.53;;
41293;SDS011;27037;52.010;4.446;2022-08-04T02:52:58;11.00;;;4.25;;
41293;SDS011;27037;52.010;4.446;2022-08-04T02:55:26;6.20;;;3.75;;
41293;SDS011;27037;52.010;4.446;2022-08-04T02:57:54;8.48;;;3.67;;
41293;SDS011;27037;52.010;4.446;2022-08-04T03:00:22;9.98;;;4.00;;
41293;SDS011;27037;52.010;4.446;2022-08-04T03:28:42;8.23;;;3.45;;
41293;SDS011;27037;52.010;4.446;2022-08-04T03:34:25;8.15;;;3.63;;
41293;SDS011;27037;52.010;4.446;2022-08-04T03:59:04;8.00;;;3.60;;
41293;SDS011;27037;52.010;4.446;2022-08-04T04:04:58;8.73;;;3.70;;
41293;SDS011;27037;52.010;4.446;2022-08-04T04:21:22;11.07;;;3.30;;
41293;SDS011;27037;52.010;4.446;2022-08-04T04:24:29;8.23;;;3.08;;
41293;SDS011;27037;52.010;4.446;2022-08-04T04:27:05;8.55;;;3.20;;
41293;SDS011;27037;52.010;4.446;2022-08-04T04:32:20;7.80;;;2.92;;
41293;SDS011;27037;52.010;4.446;2022-08-04T04:40:30;7.13;;;2.67;;
41293;SDS011;27037;52.010;4.446;2022-08-04T04:48:47;10.98;;;2.70;;
41293;SDS011;27037;52.010;4.446;2022-08-04T04:51:28;10.98;;;2.75;;
41293;SDS011;27037;52.010;4.446;2022-08-04T04:54:27;9.70;;;2.58;;
41293;SDS011;27037;52.010;4.446;2022-08-04T04:57:16;8.75;;;2.88;;
41293;SDS011;27037;52.010;4.446;2022-08-04T05:05:39;13.52;;;3.38;;
41293;SDS011;27037;52.010;4.446;2022-08-04T05:08:33;7.78;;;2.95;;
41293;SDS011;27037;52.010;4.446;2022-08-04T05:14:07;7.93;;;2.55;;
41293;SDS011;27037;52.010;4.446;2022-08-04T05:16:44;7.10;;;3.03;;
41293;SDS011;27037;52.010;4.446;2022-08-04T05:24:30;9.40;;;2.58;;
41293;SDS011;27037;52.010;4.446;2022-08-04T05:27:02;8.75;;;2.63;;
41293;SDS011;27037;52.010;4.446;2022-08-04T05:29:36;11.27;;;2.70;;
41293;SDS011;27037;52.010;4.446;2022-08-04T05:32:05;8.82;;;2.88;;
41293;SDS011;27037;52.010;4.446;2022-08-04T05:34:44;11.13;;;3.00;;
41293;SDS011;27037;52.010;4.446;2022-08-04T05:37:15;9.63;;;2.53;;
41293;SDS011;27037;52.010;4.446;2022-08-04T05:39:45;11.18;;;3.10;;
41293;SDS011;27037;52.010;4.446;2022-08-04T05:42:17;7.78;;;2.78;;
41293;SDS011;27037;52.010;4.446;2022-08-04T05:44:44;8.93;;;2.67;;
41293;SDS011;27037;52.010;4.446;2022-08-04T05:47:10;12.75;;;3.05;;
41293;SDS011;27037;52.010;4.446;2022-08-04T05:49:37;7.75;;;2.70;;
41293;SDS011;27037;52.010;4.446;2022-08-04T05:52:05;8.00;;;2.58;;
41293;SDS011;27037;52.010;4.446;2022-08-04T05:54:32;9.52;;;2.88;;
41293;SDS011;27037;52.010;4.446;2022-08-04T05:56:59;8.50;;;2.70;;
41293;SDS011;27037;52.010;4.446;2022-08-04T05:59:28;11.55;;;3.22;;
41293;SDS011;27037;52.010;4.446;2022-08-04T06:01:55;10.07;;;2.88;;
41293;SDS011;27037;52.010;4.446;2022-08-04T06:04:25;8.52;;;2.90;;
41293;SDS011;27037;52.010;4.446;2022-08-04T06:06:55;6.10;;;2.83;;
41293;SDS011;27037;52.010;4.446;2022-08-04T06:09:21;11.65;;;3.03;;
41293;SDS011;27037;52.010;4.446;2022-08-04T06:11:47;9.13;;;2.85;;
41293;SDS011;27037;52.010;4.446;2022-08-04T06:14:14;9.07;;;2.92;;
41293;SDS011;27037;52.010;4.446;2022-08-04T06:16:42;9.00;;;2.83;;
41293;SDS011;27037;52.010;4.446;2022-08-04T06:19:10;10.73;;;2.92;;
41293;SDS011;27037;52.010;4.446;2022-08-04T06:21:39;6.53;;;2.70;;
41293;SDS011;27037;52.010;4.446;2022-08-04T06:24:13;11.40;;;2.65;;
41293;SDS011;27037;52.010;4.446;2022-08-04T06:26:41;7.28;;;2.88;;
41293;SDS011;27037;52.010;4.446;2022-08-04T06:29:08;10.90;;;3.15;;
41293;SDS011;27037;52.010;4.446;2022-08-04T06:31:41;6.90;;;2.67;;
41293;SDS011;27037;52.010;4.446;2022-08-04T06:34:11;10.30;;;3.08;;
41293;SDS011;27037;52.010;4.446;2022-08-04T06:36:39;8.63;;;2.90;;
41293;SDS011;27037;52.010;4.446;2022-08-04T06:39:06;12.35;;;3.08;;
41293;SDS011;27037;52.010;4.446;2022-08-04T06:41:33;9.70;;;2.92;;
41293;SDS011;27037;52.010;4.446;2022-08-04T06:44:09;9.15;;;3.00;;
41293;SDS011;27037;52.010;4.446;2022-08-04T06:46:37;6.15;;;2.80;;
41293;SDS011;27037;52.010;4.446;2022-08-04T06:49:05;12.40;;;2.88;;
41293;SDS011;27037;52.010;4.446;2022-08-04T06:51:35;8.77;;;2.45;;
41293;SDS011;27037;52.010;4.446;2022-08-04T06:54:02;11.02;;;3.00;;
41293;SDS011;27037;52.010;4.446;2022-08-04T06:56:29;8.35;;;2.78;;
41293;SDS011;27037;52.010;4.446;2022-08-04T06:58:58;9.35;;;3.17;;
41293;SDS011;27037;52.010;4.446;2022-08-04T07:01:25;7.95;;;2.33;;
41293;SDS011;27037;52.010;4.446;2022-08-04T07:03:53;6.63;;;2.60;;
41293;SDS011;27037;52.010;4.446;2022-08-04T07:06:20;5.63;;;2.25;;
41293;SDS011;27037;52.010;4.446;2022-08-04T07:08:47;7.18;;;2.60;;
41293;SDS011;27037;52.010;4.446;2022-08-04T07:11:13;10.85;;;2.33;;
41293;SDS011;27037;52.010;4.446;2022-08-04T07:13:39;6.95;;;2.40;;
41293;SDS011;27037;52.010;4.446;2022-08-04T07:16:07;8.30;;;2.58;;
41293;SDS011;27037;52.010;4.446;2022-08-04T07:18:37;6.78;;;2.13;;
41293;SDS011;27037;52.010;4.446;2022-08-04T07:21:02;6.72;;;2.20;;
41293;SDS011;27037;52.010;4.446;2022-08-04T07:23:28;12.50;;;2.55;;
41293;SDS011;27037;52.010;4.446;2022-08-04T07:25:55;12.10;;;2.83;;
41293;SDS011;27037;52.010;4.446;2022-08-04T07:28:23;6.20;;;2.15;;
41293;SDS011;27037;52.010;4.446;2022-08-04T07:30:52;4.68;;;2.17;;
41293;SDS011;27037;52.010;4.446;2022-08-04T07:33:18;7.57;;;2.10;;
41293;SDS011;27037;52.010;4.446;2022-08-04T07:35:46;6.60;;;2.60;;
41293;SDS011;27037;52.010;4.446;2022-08-04T07:38:14;6.43;;;2.38;;
41293;SDS011;27037;52.010;4.446;2022-08-04T07:40:40;9.38;;;2.72;;
41293;SDS011;27037;52.010;4.446;2022-08-04T07:43:06;7.80;;;2.33;;
41293;SDS011;27037;52.010;4.446;2022-08-04T07:45:32;5.90;;;2.15;;
41293;SDS011;27037;52.010;4.446;2022-08-04T07:47:58;7.20;;;2.30;;
41293;SDS011;27037;52.010;4.446;2022-08-04T07:50:25;9.70;;;2.30;;
41293;SDS011;27037;52.010;4.446;2022-08-04T07:52:52;8.93;;;2.38;;
41293;SDS011;27037;52.010;4.446;2022-08-04T07:55:18;6.28;;;1.90;;
41293;SDS011;27037;52.010;4.446;2022-08-04T07:57:45;5.20;;;2.10;;
41293;SDS011;27037;52.010;4.446;2022-08-04T08:00:11;5.53;;;2.13;;
41293;SDS011;27037;52.010;4.446;2022-08-04T08:02:41;6.18;;;2.28;;
41293;SDS011;27037;52.010;4.446;2022-08-04T08:05:08;7.78;;;2.00;;
41293;SDS011;27037;52.010;4.446;2022-08-04T08:07:34;8.77;;;2.30;;
41293;SDS011;27037;52.010;4.446;2022-08-04T08:10:00;6.05;;;2.08;;
41293;SDS011;27037;52.010;4.446;2022-08-04T08:12:26;6.13;;;2.30;;
41293;SDS011;27037;52.010;4.446;2022-08-04T08:14:53;5.15;;;2.08;;
41293;SDS011;27037;52.010;4.446;2022-08-04T08:17:19;7.93;;;2.20;;
41293;SDS011;27037;52.010;4.446;2022-08-04T08:19:44;4.25;;;2.20;;
41293;SDS011;27037;52.010;4.446;2022-08-04T08:22:10;8.57;;;2.30;;
41293;SDS011;27037;52.010;4.446;2022-08-04T08:24:37;4.80;;;2.05;;
41293;SDS011;27037;52.010;4.446;2022-08-04T08:27:03;4.97;;;2.17;;
41293;SDS011;27037;52.010;4.446;2022-08-04T08:29:32;6.45;;;2.35;;
41293;SDS011;27037;52.010;4.446;2022-08-04T08:31:58;4.18;;;1.92;;
41293;SDS011;27037;52.010;4.446;2022-08-04T08:34:28;4.65;;;2.30;;
41293;SDS011;27037;52.010;4.446;2022-08-04T08:37:11;6.15;;;2.15;;
41293;SDS011;27037;52.010;4.446;2022-08-04T08:53:44;4.38;;;1.90;;
41293;SDS011;27037;52.010;4.446;2022-08-04T08:56:16;3.40;;;1.70;;
41293;SDS011;27037;52.010;4.446;2022-08-04T09:01:46;5.83;;;1.77;;
41293;SDS011;27037;52.010;4.446;2022-08-04T09:10:07;4.85;;;1.55;;
41293;SDS011;27037;52.010;4.446;2022-08-04T09:12:48;3.95;;;1.70;;
41293;SDS011;27037;52.010;4.446;2022-08-04T09:18:24;4.10;;;1.60;;
41293;SDS011;27037;52.010;4.446;2022-08-04T09:21:01;4.15;;;1.33;;
41293;SDS011;27037;52.010;4.446;2022-08-04T09:23:41;3.42;;;1.50;;
41293;SDS011;27037;52.010;4.446;2022-08-04T09:29:18;5.63;;;1.30;;
41293;SDS011;27037;52.010;4.446;2022-08-04T09:38:09;5.97;;;1.88;;
41293;SDS011;27037;52.010;4.446;2022-08-04T09:49:17;2.70;;;1.58;;
41293;SDS011;27037;52.010;4.446;2022-08-04T10:00:08;2.70;;;1.30;;
41293;SDS011;27037;52.010;4.446;2022-08-04T10:02:57;3.63;;;1.38;;
41293;SDS011;27037;52.010;4.446;2022-08-04T10:05:26;3.45;;;1.42;;
41293;SDS011;27037;52.010;4.446;2022-08-04T10:08:22;4.43;;;1.50;;
41293;SDS011;27037;52.010;4.446;2022-08-04T10:11:10;2.75;;;1.30;;
41293;SDS011;27037;52.010;4.446;2022-08-04T10:13:55;3.85;;;1.63;;
41293;SDS011;27037;52.010;4.446;2022-08-04T10:19:24;3.97;;;1.48;;
41293;SDS011;27037;52.010;4.446;2022-08-04T10:27:35;3.45;;;1.60;;
41293;SDS011;27037;52.010;4.446;2022-08-04T10:30:09;4.53;;;1.48;;
41293;SDS011;27037;52.010;4.446;2022-08-04T10:32:43;4.32;;;1.58;;
41293;SDS011;27037;52.010;4.446;2022-08-04T10:35:16;3.88;;;1.60;;
41293;SDS011;27037;52.010;4.446;2022-08-04T10:38:07;4.38;;;1.30;;
41293;SDS011;27037;52.010;4.446;2022-08-04T10:43:18;6.38;;;1.75;;
41293;SDS011;27037;52.010;4.446;2022-08-04T10:45:55;6.50;;;1.60;;
41293;SDS011;27037;52.010;4.446;2022-08-04T10:54:02;4.97;;;1.40;;
41293;SDS011;27037;52.010;4.446;2022-08-04T10:56:37;4.35;;;1.52;;
41293;SDS011;27037;52.010;4.446;2022-08-04T10:59:11;4.78;;;1.85;;
41293;SDS011;27037;52.010;4.446;2022-08-04T11:01:43;5.45;;;1.73;;
41293;SDS011;27037;52.010;4.446;2022-08-04T11:04:14;3.58;;;1.48;;
41293;SDS011;27037;52.010;4.446;2022-08-04T11:06:50;4.10;;;1.50;;
41293;SDS011;27037;52.010;4.446;2022-08-04T11:09:17;4.00;;;1.45;;
41293;SDS011;27037;52.010;4.446;2022-08-04T11:11:46;3.42;;;1.73;;
41293;SDS011;27037;52.010;4.446;2022-08-04T11:14:18;3.30;;;1.40;;
41293;SDS011;27037;52.010;4.446;2022-08-04T11:16:48;4.13;;;1.33;;
41293;SDS011;27037;52.010;4.446;2022-08-04T11:30:41;3.10;;;1.70;;
41293;SDS011;27037;52.010;4.446;2022-08-04T11:35:49;3.90;;;1.55;;
41293;SDS011;27037;52.010;4.446;2022-08-04T11:41:16;2.78;;;1.50;;
41293;SDS011;27037;52.010;4.446;2022-08-04T11:43:53;5.57;;;1.58;;
41293;SDS011;27037;52.010;4.446;2022-08-04T11:46:23;2.67;;;1.58;;
41293;SDS011;27037;52.010;4.446;2022-08-04T11:51:26;2.88;;;1.30;;
41293;SDS011;27037;52.010;4.446;2022-08-04T11:53:52;3.22;;;1.35;;
41293;SDS011;27037;52.010;4.446;2022-08-04T11:56:19;3.30;;;1.38;;
41293;SDS011;27037;52.010;4.446;2022-08-04T11:58:45;5.88;;;1.50;;
41293;SDS011;27037;52.010;4.446;2022-08-04T12:06:48;4.30;;;1.50;;
41293;SDS011;27037;52.010;4.446;2022-08-04T12:12:18;3.47;;;1.40;;
41293;SDS011;27037;52.010;4.446;2022-08-04T12:20:49;3.17;;;1.30;;
41293;SDS011;27037;52.010;4.446;2022-08-04T12:23:29;3.33;;;1.20;;
41293;SDS011;27037;52.010;4.446;2022-08-04T12:26:02;5.95;;;1.50;;
41293;SDS011;27037;52.010;4.446;2022-08-04T12:28:39;3.25;;;1.40;;
41293;SDS011;27037;52.010;4.446;2022-08-04T12:31:26;6.45;;;1.67;;
41293;SDS011;27037;52.010;4.446;2022-08-04T12:33:58;4.20;;;1.50;;
41293;SDS011;27037;52.010;4.446;2022-08-04T12:36:44;6.22;;;1.77;;
41293;SDS011;27037;52.010;4.446;2022-08-04T12:39:32;5.13;;;1.45;;
41293;SDS011;27037;52.010;4.446;2022-08-04T12:42:07;3.15;;;1.27;;
41293;SDS011;27037;52.010;4.446;2022-08-04T12:44:40;3.90;;;1.48;;
41293;SDS011;27037;52.010;4.446;2022-08-04T12:47:08;3.05;;;1.40;;
41293;SDS011;27037;52.010;4.446;2022-08-04T12:49:36;3.35;;;1.70;;
41293;SDS011;27037;52.010;4.446;2022-08-04T12:52:06;4.13;;;1.40;;
41293;SDS011;27037;52.010;4.446;2022-08-04T12:54:33;3.85;;;1.48;;
41293;SDS011;27037;52.010;4.446;2022-08-04T12:57:01;3.75;;;1.65;;
41293;SDS011;27037;52.010;4.446;2022-08-04T12:59:36;4.10;;;1.45;;
41293;SDS011;27037;52.010;4.446;2022-08-04T13:02:04;5.82;;;1.60;;
41293;SDS011;27037;52.010;4.446;2022-08-04T13:04:36;4.30;;;1.30;;
41293;SDS011;27037;52.010;4.446;2022-08-04T13:07:08;3.25;;;1.50;;
41293;SDS011;27037;52.010;4.446;2022-08-04T13:09:37;3.60;;;1.63;;
41293;SDS011;27037;52.010;4.446;2022-08-04T13:12:11;3.70;;;1.70;;
41293;SDS011;27037;52.010;4.446;2022-08-04T13:14:39;6.35;;;1.70;;
41293;SDS011;27037;52.010;4.446;2022-08-04T13:17:08;4.82;;;1.77;;
41293;SDS011;27037;52.010;4.446;2022-08-04T13:19:37;4.47;;;1.50;;
41293;SDS011;27037;52.010;4.446;2022-08-04T13:22:03;6.22;;;1.73;;
41293;SDS011;27037;52.010;4.446;2022-08-04T13:24:30;6.70;;;2.25;;
41293;SDS011;27037;52.010;4.446;2022-08-04T13:29:33;4.72;;;1.75;;
41293;SDS011;27037;52.010;4.446;2022-08-04T13:32:01;4.68;;;1.67;;
41293;SDS011;27037;52.010;4.446;2022-08-04T13:34:28;6.93;;;1.98;;
41293;SDS011;27037;52.010;4.446;2022-08-04T13:36:56;8.02;;;1.80;;
41293;SDS011;27037;52.010;4.446;2022-08-04T13:39:22;6.50;;;1.70;;
41293;SDS011;27037;52.010;4.446;2022-08-04T13:41:50;8.27;;;2.15;;
41293;SDS011;27037;52.010;4.446;2022-08-04T13:44:19;4.20;;;1.52;;
41293;SDS011;27037;52.010;4.446;2022-08-04T13:46:54;5.28;;;1.92;;
41293;SDS011;27037;52.010;4.446;2022-08-04T13:49:22;5.28;;;1.80;;
41293;SDS011;27037;52.010;4.446;2022-08-04T13:51:52;6.32;;;1.85;;
41293;SDS011;27037;52.010;4.446;2022-08-04T13:54:23;5.10;;;2.00;;
41293;SDS011;27037;52.010;4.446;2022-08-04T13:56:50;5.47;;;1.70;;
41293;SDS011;27037;52.010;4.446;2022-08-04T13:59:23;7.93;;;2.00;;
41293;SDS011;27037;52.010;4.446;2022-08-04T14:02:00;7.90;;;2.20;;
41293;SDS011;27037;52.010;4.446;2022-08-04T14:04:29;5.78;;;1.75;;
41293;SDS011;27037;52.010;4.446;2022-08-04T14:09:25;6.25;;;1.80;;
41293;SDS011;27037;52.010;4.446;2022-08-04T14:11:53;6.38;;;1.75;;
41293;SDS011;27037;52.010;4.446;2022-08-04T14:14:24;5.45;;;1.58;;
41293;SDS011;27037;52.010;4.446;2022-08-04T14:19:22;4.72;;;1.90;;
41293;SDS011;27037;52.010;4.446;2022-08-04T14:21:48;5.75;;;1.73;;
41293;SDS011;27037;52.010;4.446;2022-08-04T14:24:24;7.80;;;1.80;;
41293;SDS011;27037;52.010;4.446;2022-08-04T14:26:51;4.78;;;1.60;;
41293;SDS011;27037;52.010;4.446;2022-08-04T14:29:22;4.97;;;1.60;;
41293;SDS011;27037;52.010;4.446;2022-08-04T14:31:48;6.50;;;1.70;;
41293;SDS011;27037;52.010;4.446;2022-08-04T14:34:24;6.03;;;1.70;;
41293;SDS011;27037;52.010;4.446;2022-08-04T14:36:51;4.43;;;1.58;;
41293;SDS011;27037;52.010;4.446;2022-08-04T14:39:17;6.05;;;1.70;;
41293;SDS011;27037;52.010;4.446;2022-08-04T14:42:07;6.50;;;1.70;;
41293;SDS011;27037;52.010;4.446;2022-08-04T14:47:52;6.22;;;1.70;;
41293;SDS011;27037;52.010;4.446;2022-08-04T14:50:11;3.92;;;1.23;;
41293;SDS011;27037;52.010;4.446;2022-08-04T14:52:38;6.20;;;1.38;;
41293;SDS011;27037;52.010;4.446;2022-08-04T14:55:17;3.35;;;1.50;;
41293;SDS011;27037;52.010;4.446;2022-08-04T14:57:44;3.95;;;1.40;;
41293;SDS011;27037;52.010;4.446;2022-08-04T15:00:10;7.78;;;1.60;;
41293;SDS011;27037;52.010;4.446;2022-08-04T15:02:37;3.78;;;1.50;;
41293;SDS011;27037;52.010;4.446;2022-08-04T15:05:06;5.30;;;1.50;;
41293;SDS011;27037;52.010;4.446;2022-08-04T15:07:32;8.05;;;4.40;;
41293;SDS011;27037;52.010;4.446;2022-08-04T15:09:58;7.07;;;2.10;;
41293;SDS011;27037;52.010;4.446;2022-08-04T15:12:23;7.90;;;2.53;;
41293;SDS011;27037;52.010;4.446;2022-08-04T15:14:49;8.27;;;1.63;;
41293;SDS011;27037;52.010;4.446;2022-08-04T15:17:15;4.40;;;1.40;;
41293;SDS011;27037;52.010;4.446;2022-08-04T15:19:41;5.13;;;1.60;;
41293;SDS011;27037;52.010;4.446;2022-08-04T15:22:07;3.00;;;1.30;;
41293;SDS011;27037;52.010;4.446;2022-08-04T15:24:33;4.65;;;1.60;;
41293;SDS011;27037;52.010;4.446;2022-08-04T15:26:58;4.88;;;1.52;;
41293;SDS011;27037;52.010;4.446;2022-08-04T15:29:27;5.70;;;1.30;;
41293;SDS011;27037;52.010;4.446;2022-08-04T15:31:58;4.40;;;1.50;;
41293;SDS011;27037;52.010;4.446;2022-08-04T15:34:41;5.68;;;1.45;;
41293;SDS011;27037;52.010;4.446;2022-08-04T15:37:26;4.80;;;1.73;;
41293;SDS011;27037;52.010;4.446;2022-08-04T15:40:08;4.07;;;1.60;;
41293;SDS011;27037;52.010;4.446;2022-08-04T15:45:17;6.30;;;1.80;;
41293;SDS011;27037;52.010;4.446;2022-08-04T15:48:21;4.30;;;1.60;;
41293;SDS011;27037;52.010;4.446;2022-08-04T15:53:27;5.57;;;1.70;;
41293;SDS011;27037;52.010;4.446;2022-08-04T15:58:54;5.00;;;1.60;;
41293;SDS011;27037;52.010;4.446;2022-08-04T16:01:20;5.45;;;1.73;;
41293;SDS011;27037;52.010;4.446;2022-08-04T16:03:50;6.18;;;1.45;;
41293;SDS011;27037;52.010;4.446;2022-08-04T16:16:25;6.63;;;2.00;;
41293;SDS011;27037;52.010;4.446;2022-08-04T16:21:29;7.78;;;1.95;;
41293;SDS011;27037;52.010;4.446;2022-08-04T16:24:16;4.90;;;1.80;;
41293;SDS011;27037;52.010;4.446;2022-08-04T16:26:44;4.85;;;1.50;;
41293;SDS011;27037;52.010;4.446;2022-08-04T16:34:51;5.05;;;2.00;;
41293;SDS011;27037;52.010;4.446;2022-08-04T16:37:29;6.55;;;1.98;;
41293;SDS011;27037;52.010;4.446;2022-08-04T16:43:16;4.63;;;2.17;;
41293;SDS011;27037;52.010;4.446;2022-08-04T16:48:10;5.78;;;1.52;;
41293;SDS011;27037;52.010;4.446;2022-08-04T16:50:47;6.25;;;1.50;;
41293;SDS011;27037;52.010;4.446;2022-08-04T16:53:18;3.38;;;1.58;;
41293;SDS011;27037;52.010;4.446;2022-08-04T16:55:46;5.70;;;1.67;;
41293;SDS011;27037;52.010;4.446;2022-08-04T16:58:14;4.40;;;1.50;;
41293;SDS011;27037;52.010;4.446;2022-08-04T17:00:41;6.30;;;1.55;;
41293;SDS011;27037;52.010;4.446;2022-08-04T17:03:08;4.88;;;1.60;;
41293;SDS011;27037;52.010;4.446;2022-08-04T17:05:39;6.03;;;1.70;;
41293;SDS011;27037;52.010;4.446;2022-08-04T17:08:05;7.43;;;1.73;;
41293;SDS011;27037;52.010;4.446;2022-08-04T17:10:33;6.60;;;1.73;;
41293;SDS011;27037;52.010;4.446;2022-08-04T17:13:21;5.88;;;1.73;;
41293;SDS011;27037;52.010;4.446;2022-08-04T17:15:48;6.18;;;1.80;;
41293;SDS011;27037;52.010;4.446;2022-08-04T17:18:23;4.90;;;1.80;;
41293;SDS011;27037;52.010;4.446;2022-08-04T17:20:50;6.05;;;1.95;;
41293;SDS011;27037;52.010;4.446;2022-08-04T17:23:23;8.15;;;2.72;;
41293;SDS011;27037;52.010;4.446;2022-08-04T17:25:56;6.43;;;1.60;;
41293;SDS011;27037;52.010;4.446;2022-08-04T17:28:25;3.88;;;1.50;;
41293;SDS011;27037;52.010;4.446;2022-08-04T17:30:52;4.18;;;1.40;;
41293;SDS011;27037;52.010;4.446;2022-08-04T17:33:19;5.82;;;1.50;;
41293;SDS011;27037;52.010;4.446;2022-08-04T17:35:45;3.63;;;1.45;;
41293;SDS011;27037;52.010;4.446;2022-08-04T17:38:11;4.55;;;1.50;;
41293;SDS011;27037;52.010;4.446;2022-08-04T17:40:55;4.97;;;1.58;;
41293;SDS011;27037;52.010;4.446;2022-08-04T17:46:20;4.22;;;1.42;;
41293;SDS011;27037;52.010;4.446;2022-08-04T17:49:07;6.07;;;1.55;;
41293;SDS011;27037;52.010;4.446;2022-08-04T17:51:54;9.15;;;1.90;;
41293;SDS011;27037;52.010;4.446;2022-08-04T17:54:31;5.25;;;1.73;;
41293;SDS011;27037;52.010;4.446;2022-08-04T17:57:00;7.35;;;1.73;;
41293;SDS011;27037;52.010;4.446;2022-08-04T17:59:44;5.47;;;1.65;;
41293;SDS011;27037;52.010;4.446;2022-08-04T18:02:16;6.95;;;1.60;;
41293;SDS011;27037;52.010;4.446;2022-08-04T18:07:13;6.10;;;1.65;;
41293;SDS011;27037;52.010;4.446;2022-08-04T18:12:29;6.63;;;2.00;;
41293;SDS011;27037;52.010;4.446;2022-08-04T18:15:01;8.23;;;1.88;;
41293;SDS011;27037;52.010;4.446;2022-08-04T18:17:32;4.72;;;1.77;;
41293;SDS011;27037;52.010;4.446;2022-08-04T18:20:12;6.43;;;2.25;;
41293;SDS011;27037;52.010;4.446;2022-08-04T18:22:41;5.20;;;2.28;;
41293;SDS011;27037;52.010;4.446;2022-08-04T18:25:08;4.28;;;2.00;;
41293;SDS011;27037;52.010;4.446;2022-08-04T18:27:45;6.72;;;1.98;;
41293;SDS011;27037;52.010;4.446;2022-08-04T18:30:21;7.20;;;2.40;;
41293;SDS011;27037;52.010;4.446;2022-08-04T18:32:48;5.88;;;2.33;;
41293;SDS011;27037;52.010;4.446;2022-08-04T18:35:15;7.30;;;2.22;;
41293;SDS011;27037;52.010;4.446;2022-08-04T18:37:40;7.63;;;2.55;;
41293;SDS011;27037;52.010;4.446;2022-08-04T18:40:07;9.70;;;2.25;;
41293;SDS011;27037;52.010;4.446;2022-08-04T18:42:37;6.22;;;2.33;;
41293;SDS011;27037;52.010;4.446;2022-08-04T18:45:03;6.18;;;2.45;;
41293;SDS011;27037;52.010;4.446;2022-08-04T18:47:29;6.82;;;2.70;;
41293;SDS011;27037;52.010;4.446;2022-08-04T18:49:55;10.65;;;2.80;;
41293;SDS011;27037;52.010;4.446;2022-08-04T18:52:21;10.85;;;2.88;;
41293;SDS011;27037;52.010;4.446;2022-08-04T18:54:48;9.90;;;3.40;;
41293;SDS011;27037;52.010;4.446;2022-08-04T18:57:19;7.25;;;2.53;;
41293;SDS011;27037;52.010;4.446;2022-08-04T18:59:49;10.07;;;2.65;;
41293;SDS011;27037;52.010;4.446;2022-08-04T19:02:18;7.80;;;2.75;;
41293;SDS011;27037;52.010;4.446;2022-08-04T19:04:43;8.52;;;2.90;;
41293;SDS011;27037;52.010;4.446;2022-08-04T19:07:09;8.40;;;2.50;;
41293;SDS011;27037;52.010;4.446;2022-08-04T19:09:41;7.03;;;2.30;;
41293;SDS011;27037;52.010;4.446;2022-08-04T19:12:11;7.95;;;2.35;;
41293;SDS011;27037;52.010;4.446;2022-08-04T19:14:37;6.20;;;2.28;;
41293;SDS011;27037;52.010;4.446;2022-08-04T19:17:03;5.72;;;2.20;;
41293;SDS011;27037;52.010;4.446;2022-08-04T19:19:29;9.60;;;2.72;;
41293;SDS011;27037;52.010;4.446;2022-08-04T19:21:55;10.55;;;2.72;;
41293;SDS011;27037;52.010;4.446;2022-08-04T19:24:21;10.45;;;2.78;;
41293;SDS011;27037;52.010;4.446;2022-08-04T19:26:46;5.07;;;2.13;;
41293;SDS011;27037;52.010;4.446;2022-08-04T19:29:12;8.65;;;2.60;;
41293;SDS011;27037;52.010;4.446;2022-08-04T19:31:42;11.25;;;2.63;;
41293;SDS011;27037;52.010;4.446;2022-08-04T19:34:07;6.45;;;2.50;;
41293;SDS011;27037;52.010;4.446;2022-08-04T19:36:34;9.85;;;2.75;;
41293;SDS011;27037;52.010;4.446;2022-08-04T19:39:01;8.57;;;2.53;;
41293;SDS011;27037;52.010;4.446;2022-08-04T19:41:30;10.57;;;2.60;;
41293;SDS011;27037;52.010;4.446;2022-08-04T19:44:00;7.68;;;2.70;;
41293;SDS011;27037;52.010;4.446;2022-08-04T19:46:29;9.15;;;2.60;;
41293;SDS011;27037;52.010;4.446;2022-08-04T19:48:55;6.97;;;2.50;;
41293;SDS011;27037;52.010;4.446;2022-08-04T19:51:21;8.18;;;2.80;;
41293;SDS011;27037;52.010;4.446;2022-08-04T19:53:46;8.35;;;2.63;;
41293;SDS011;27037;52.010;4.446;2022-08-04T19:56:12;8.63;;;2.58;;
41293;SDS011;27037;52.010;4.446;2022-08-04T19:58:40;7.40;;;2.80;;
41293;SDS011;27037;52.010;4.446;2022-08-04T20:01:06;7.30;;;2.58;;
41293;SDS011;27037;52.010;4.446;2022-08-04T20:03:33;12.65;;;2.92;;
41293;SDS011;27037;52.010;4.446;2022-08-04T20:05:59;9.57;;;2.63;;
41293;SDS011;27037;52.010;4.446;2022-08-04T20:08:31;8.15;;;2.88;;